createdAt,value
2022-11-07T05:07:46.597Z,29.67
2022-11-07T05:10:49.038Z,30.83
2022-11-07T05:13:51.065Z,30.58
2022-11-07T05:16:54.529Z,29.27
2022-11-07T05:19:56.557Z,30.83
2022-11-07T05:23:18.880Z,30.35
2022-11-07T05:26:21.434Z,30.42
2022-11-07T05:29:23.769Z,30.77
2022-11-07T05:32:26.101Z,30.75
2022-11-07T05:35:28.414Z,29.95
2022-11-07T05:38:31.097Z,30.02
2022-11-07T05:41:35.662Z,31.65
2022-11-07T05:44:37.993Z,31.35
2022-11-07T05:47:42.609Z,30.75
2022-11-07T05:50:44.650Z,30.02
2022-11-07T05:53:46.936Z,31.40
2022-11-07T05:56:48.980Z,30.23
2022-11-07T05:59:51.247Z,30.25
2022-11-07T06:03:02.354Z,31.80
2022-11-07T06:06:05.194Z,31.58
2022-11-07T06:09:07.304Z,29.80
2022-11-07T06:12:09.681Z,30.73
2022-11-07T06:15:12.275Z,29.67
2022-11-07T06:18:17.981Z,30.20
2022-11-07T06:21:20.061Z,30.00
2022-11-07T06:24:22.360Z,31.77
2022-11-07T06:27:24.436Z,33.47
2022-11-07T06:30:27.456Z,33.42
2022-11-07T06:33:30.387Z,31.00
2022-11-07T06:36:33.147Z,30.17
2022-11-07T06:39:35.176Z,28.62
2022-11-07T06:42:37.740Z,27.58
2022-11-07T06:45:40.603Z,26.90
2022-11-07T06:48:43.116Z,26.58
2022-11-07T06:51:47.853Z,26.08
2022-11-07T06:54:50.350Z,26.40
2022-11-07T06:57:52.380Z,24.87
2022-11-07T07:00:58.781Z,25.80
2022-11-07T07:04:03.453Z,24.50
2022-11-07T07:07:06.917Z,23.23
2022-11-07T07:10:09.436Z,22.33
2022-11-07T07:13:14.592Z,22.10
2022-11-07T07:16:17.331Z,22.00
2022-11-07T07:19:19.628Z,21.12
2022-11-07T07:22:21.645Z,22.70
2022-11-07T07:25:24.195Z,22.55
2022-11-07T07:28:26.270Z,21.60
2022-11-07T07:31:31.540Z,22.83
2022-11-07T07:34:34.294Z,24.60
2022-11-07T07:37:37.309Z,23.92
2022-11-07T07:40:39.384Z,23.27
2022-11-07T07:43:42.784Z,23.92
2022-11-07T07:46:46.447Z,20.98
2022-11-07T07:49:48.788Z,20.40
2022-11-07T07:52:58.449Z,19.58
2022-11-07T07:56:02.939Z,19.55
2022-11-07T07:59:05.196Z,19.08
2022-11-07T08:02:12.514Z,17.40
2022-11-07T08:05:16.100Z,17.70
2022-11-07T08:08:18.151Z,18.05
2022-11-07T08:11:20.655Z,17.37
2022-11-07T08:14:22.784Z,16.02
2022-11-07T08:17:25.072Z,16.12
2022-11-07T08:20:27.971Z,16.40
2022-11-07T08:23:31.111Z,17.08
2022-11-07T08:26:33.223Z,17.27
2022-11-07T08:29:35.520Z,16.45
2022-11-07T08:32:37.548Z,16.80
2022-11-07T08:35:42.649Z,16.20
2022-11-07T08:38:45.154Z,15.95
2022-11-07T08:41:47.444Z,16.10
2022-11-07T08:44:49.486Z,15.85
2022-11-07T08:47:56.569Z,17.40
2022-11-07T08:50:59.524Z,15.25
2022-11-07T08:54:01.868Z,15.50
2022-11-07T08:57:04.084Z,15.75
2022-11-07T09:00:07.216Z,15.73
2022-11-07T09:06:34.139Z,15.68
2022-11-07T09:09:36.168Z,16.02
2022-11-07T09:12:46.209Z,17.15
2022-11-07T09:15:51.484Z,16.08
2022-11-07T09:18:54.305Z,15.60
2022-11-07T09:21:57.092Z,16.08
2022-11-07T09:24:59.766Z,15.18
2022-11-07T09:28:03.225Z,14.87
2022-11-07T09:31:05.993Z,15.00
2022-11-07T09:34:08.061Z,14.65
2022-11-07T09:37:10.940Z,15.30
2022-11-07T09:40:24.495Z,14.38
2022-11-07T09:43:45.320Z,15.02
2022-11-07T09:46:56.131Z,15.95
2022-11-07T09:50:01.656Z,16.27
2022-11-07T09:53:12.699Z,16.48
2022-11-07T09:56:15.848Z,15.77
2022-11-07T09:59:40.608Z,16.65
2022-11-07T10:02:53.064Z,15.60
2022-11-07T10:06:24.439Z,15.43
2022-11-07T10:09:50.004Z,15.70
2022-11-07T10:13:18.649Z,15.43
2022-11-07T10:16:32.864Z,15.38
2022-11-07T10:19:56.652Z,18.35
2022-11-07T10:23:28.873Z,15.85
2022-11-07T10:26:31.785Z,15.15
2022-11-07T10:29:48.000Z,15.23
2022-11-07T10:33:27.224Z,15.38
2022-11-07T10:36:32.091Z,14.30
2022-11-07T10:39:34.664Z,14.68
2022-11-07T10:42:37.079Z,13.18
2022-11-07T10:45:39.953Z,13.48
2022-11-07T10:48:57.332Z,13.10
2022-11-07T10:52:09.603Z,13.13
2022-11-07T10:55:16.842Z,11.95
2022-11-07T10:58:26.670Z,12.60
2022-11-07T11:01:30.899Z,11.85
2022-11-07T11:04:37.827Z,11.57
2022-11-07T11:07:41.360Z,11.35
2022-11-07T11:10:43.796Z,11.02
2022-11-07T11:13:45.904Z,10.85
2022-11-07T11:16:53.618Z,10.23
2022-11-07T11:19:56.138Z,11.80
2022-11-07T11:22:59.981Z,10.82
2022-11-07T11:26:30.262Z,11.27
2022-11-07T11:29:50.728Z,9.75
2022-11-07T11:33:22.452Z,9.82
2022-11-07T11:36:34.717Z,10.13
2022-11-07T11:39:49.112Z,9.63
2022-11-07T11:42:59.392Z,8.70
2022-11-07T11:46:29.030Z,8.45
2022-11-07T11:49:44.488Z,8.75
2022-11-07T11:52:46.752Z,7.33
2022-11-07T11:56:27.947Z,7.62
2022-11-07T11:59:52.069Z,6.78
2022-11-07T12:03:18.267Z,6.70
2022-11-07T12:06:34.966Z,5.85
2022-11-07T12:09:48.773Z,6.68
2022-11-07T12:12:54.227Z,6.07
2022-11-07T12:16:10.086Z,5.70
2022-11-07T12:23:05.030Z,5.60
2022-11-07T12:26:13.702Z,5.97
2022-11-07T12:29:42.744Z,6.28
2022-11-07T12:33:05.397Z,4.47
2022-11-07T12:36:22.757Z,3.70
2022-11-07T12:39:38.003Z,4.45
2022-11-07T12:43:09.868Z,4.18
2022-11-07T12:46:37.718Z,3.45
2022-11-07T12:49:58.593Z,3.72
2022-11-07T12:53:21.323Z,3.55
2022-11-07T12:56:34.188Z,4.62
2022-11-07T12:59:39.423Z,3.10
2022-11-07T13:03:05.503Z,3.25
2022-11-07T13:06:44.965Z,3.37
2022-11-07T13:09:55.073Z,2.85
2022-11-07T13:13:48.738Z,3.22
2022-11-07T13:17:19.990Z,3.97
2022-11-07T13:20:22.332Z,3.30
2022-11-07T13:23:26.936Z,3.15
2022-11-07T13:29:52.007Z,3.40
2022-11-07T13:32:54.328Z,3.55
2022-11-07T13:35:59.900Z,3.42
2022-11-07T13:39:06.598Z,3.47
2022-11-07T13:42:16.155Z,3.42
2022-11-07T13:45:27.722Z,4.20
2022-11-07T13:48:50.095Z,4.00
2022-11-07T13:51:56.511Z,3.97
2022-11-07T13:55:28.049Z,4.45
2022-11-07T13:58:33.293Z,4.03
2022-11-07T14:01:44.100Z,4.00
2022-11-07T14:05:15.354Z,5.95
2022-11-07T14:08:25.800Z,37.92
2022-11-07T14:11:28.498Z,7.03
2022-11-07T14:14:30.600Z,25.42
2022-11-07T14:17:36.119Z,72.37
2022-11-07T14:20:38.153Z,19.98
2022-11-07T14:23:44.668Z,6.55
2022-11-07T14:26:57.944Z,3.72
2022-11-07T14:30:00.369Z,3.75
2022-11-07T14:33:04.732Z,3.67
2022-11-07T14:36:07.146Z,3.58
2022-11-07T14:39:15.704Z,3.92
2022-11-07T14:42:24.083Z,3.55
2022-11-07T14:46:04.577Z,4.07
2022-11-07T14:48:51.378Z,4.28
2022-11-07T14:51:55.487Z,3.97
2022-11-07T14:55:18.890Z,3.72
2022-11-07T14:58:24.084Z,3.83
2022-11-07T15:01:30.621Z,7.57
2022-11-07T15:04:39.222Z,8.70
2022-11-07T15:07:47.710Z,5.82
2022-11-07T15:11:00.914Z,5.55
2022-11-07T15:14:19.501Z,4.47
2022-11-07T15:17:24.989Z,4.37
2022-11-07T15:20:30.228Z,4.43
2022-11-07T15:23:34.774Z,5.03
2022-11-07T15:26:37.065Z,4.70
2022-11-07T15:29:39.781Z,4.80
2022-11-07T15:32:42.565Z,6.03
2022-11-07T15:35:47.221Z,6.32
2022-11-07T15:38:51.478Z,6.93
2022-11-07T15:41:53.512Z,7.00
2022-11-07T15:44:55.809Z,7.07
2022-11-07T15:47:58.046Z,6.60
2022-11-07T15:51:00.380Z,7.30
2022-11-07T15:54:02.450Z,7.82
2022-11-07T15:57:06.560Z,7.32
2022-11-07T16:00:15.504Z,6.95
2022-11-07T16:03:19.915Z,8.63
2022-11-07T16:06:28.877Z,7.72
2022-11-07T16:09:32.736Z,8.07
2022-11-07T16:12:34.753Z,8.23
2022-11-07T16:15:38.652Z,9.02
2022-11-07T16:18:45.088Z,10.02
2022-11-07T16:21:50.532Z,11.48
2022-11-07T16:24:52.558Z,10.18
2022-11-07T16:27:59.001Z,12.60
2022-11-07T16:31:02.333Z,12.13
2022-11-07T16:34:05.032Z,12.68
2022-11-07T16:37:09.057Z,11.50
2022-11-07T16:40:18.072Z,13.45
2022-11-07T16:43:20.540Z,12.37
2022-11-07T16:46:24.660Z,12.60
2022-11-07T16:49:33.538Z,12.98
2022-11-07T16:52:35.837Z,12.43
2022-11-07T16:55:38.711Z,13.23
2022-11-07T16:58:41.082Z,13.13
